Time;durP1;ratioP1;P1;durP2;ratioP2;P2;SDS_P1;SDS_P2;PMS_P1;PMS_P2;Temp;Humidity;BMP_temperature;BMP_pressure;BME280_temperature;BME280_humidity;BME280_pressure;Samples;Min_cycle;Max_cycle;Signal;HPM_P1;HPM_P2
2023/09/18 00:01:24;;;;;;;;;;;;;;;22.19;60.95;100846.13;4226756;28;20026;-68
2023/09/18 00:03:25;;;;;;;;;;;;;;;22.19;60.93;100839.81;4227650;28;20035;-68
2023/09/18 00:05:28;;;;;;;;;;;;;;;22.16;61.12;100838.38;4227228;28;19935;-67
2023/09/18 00:07:30;;;;;;;;;;;;;;;22.15;61.02;100842.25;4227576;28;20425;-68
2023/09/18 00:09:32;;;;;;;;;;;;;;;22.12;61.03;100838.06;4229994;28;20437;-67
2023/09/18 00:11:34;;;;;;;;;;;;;;;22.11;61.24;100841.06;4231235;28;20385;-68
2023/09/18 00:13:35;;;;;;;;;;;;;;;22.08;61.28;100842.41;4221829;28;20018;-67
2023/09/18 00:15:38;;;;;;;;;;;;;;;22.07;61.35;100838.00;4229617;28;19927;-68
2023/09/18 00:17:41;;;;;;;;;;;;;;;22.06;61.10;100835.50;4231372;28;20006;-68
2023/09/18 00:19:43;;;;;;;;;;;;;;;22.04;61.02;100835.75;4229094;28;20053;-68
2023/09/18 00:21:45;;;;;;;;;;;;;;;22.03;61.12;100833.25;4229901;28;20054;-69
2023/09/18 00:23:47;;;;;;;;;;;;;;;22.03;61.22;100833.25;4227487;28;20022;-69
2023/09/18 00:25:49;;;;;;;;;;;;;;;22.02;61.19;100828.81;4228364;28;20457;-68
2023/09/18 00:27:52;;;;;;;;;;;;;;;22.01;61.44;100832.69;4227934;28;20023;-68
2023/09/18 00:29:55;;;;;;;;;;;;;;;22.00;61.44;100839.25;4228626;28;19928;-68
2023/09/18 00:31:57;;;;;;;;;;;;;;;21.99;61.54;100826.56;4229667;27;20007;-68
2023/09/18 00:34:00;;;;;;;;;;;;;;;21.98;61.21;100823.00;4229757;28;20019;-68
2023/09/18 00:36:01;;;;;;;;;;;;;;;21.98;61.58;100822.19;4221033;28;20023;-68
2023/09/18 00:38:03;;;;;;;;;;;;;;;21.96;61.44;100820.50;4230607;28;20094;-69
2023/09/18 00:40:06;;;;;;;;;;;;;;;21.95;61.58;100820.75;4228827;28;20523;-68
2023/09/18 00:42:12;;;;;;;;;;;;;;;21.95;61.42;100820.75;4228045;28;20026;-70
2023/09/18 00:44:15;;;;;;;;;;;;;;;21.93;61.70;100818.25;4228423;28;20063;-68
2023/09/18 00:46:17;;;;;;;;;;;;;;;21.91;61.32;100809.44;4229022;28;20023;-68
2023/09/18 00:48:19;;;;;;;;;;;;;;;21.90;61.50;100813.25;4230747;28;20444;-68
2023/09/18 00:50:23;;;;;;;;;;;;;;;21.90;61.59;100818.75;4219564;28;20488;-68
2023/09/18 00:52:24;;;;;;;;;;;;;;;21.90;61.46;100806.94;4230099;28;20024;-67
2023/09/18 00:54:26;;;;;;;;;;;;;;;21.89;61.62;100805.25;4211752;28;20016;-68
2023/09/18 00:56:28;;;;;;;;;;;;;;;21.88;61.73;100807.19;4229270;28;20023;-68
2023/09/18 00:58:30;;;;;;;;;;;;;;;21.88;61.57;100809.94;4231170;28;20023;-68
2023/09/18 01:00:33;;;;;;;;;;;;;;;21.87;61.46;100801.94;4228646;28;20018;-69
2023/09/18 01:02:35;;;;;;;;;;;;;;;21.85;61.41;100801.34;4228867;28;20050;-68
2023/09/18 01:04:37;;;;;;;;;;;;;;;21.85;61.41;100798.59;4220473;28;20458;-68
2023/09/18 01:06:39;;;;;;;;;;;;;;;21.85;61.34;100804.09;4230060;28;20046;-68
2023/09/18 01:08:41;;;;;;;;;;;;;;;21.84;61.49;100803.25;4229924;27;20010;-67
2023/09/18 01:10:59;;;;;;;;;;;;;;;21.83;61.69;100792.50;4229765;28;19928;-67
2023/09/18 01:13:02;;;;;;;;;;;;;;;21.81;61.52;100792.75;4228864;28;20026;-67
2023/09/18 01:15:07;;;;;;;;;;;;;;;21.79;61.71;100792.19;4229504;28;20363;-68
2023/09/18 01:17:10;;;;;;;;;;;;;;;21.75;61.58;100789.09;4229257;28;20022;-67
2023/09/18 01:19:12;;;;;;;;;;;;;;;21.78;61.56;100790.53;4227046;28;20294;-67
2023/09/18 01:21:15;;;;;;;;;;;;;;;21.76;61.54;100789.94;4228625;28;20019;-68
2023/09/18 01:23:18;;;;;;;;;;;;;;;21.76;61.62;100792.69;4212053;28;20370;-68
2023/09/18 01:25:22;;;;;;;;;;;;;;;21.74;61.50;100792.94;4230165;28;20030;-69
2023/09/18 01:27:24;;;;;;;;;;;;;;;21.73;61.73;100784.94;4220591;28;20496;-68
2023/09/18 01:29:26;;;;;;;;;;;;;;;21.72;61.84;100792.38;4219014;28;20031;-67
2023/09/18 01:31:29;;;;;;;;;;;;;;;21.72;61.80;100786.88;4218578;28;20607;-68
2023/09/18 01:33:31;;;;;;;;;;;;;;;21.70;61.60;100774.44;4228448;28;20018;-69
2023/09/18 01:35:33;;;;;;;;;;;;;;;21.70;61.66;100782.69;4220545;28;20010;-68
2023/09/18 01:37:35;;;;;;;;;;;;;;;21.68;61.60;100784.88;4229471;28;20031;-67
2023/09/18 01:39:38;;;;;;;;;;;;;;;21.67;61.88;100778.53;4226857;28;20018;-69
2023/09/18 01:41:39;;;;;;;;;;;;;;;21.67;61.95;100774.94;4229099;28;20026;-68
2023/09/18 01:43:41;;;;;;;;;;;;;;;21.65;61.65;100777.13;4228322;28;19924;-69
2023/09/18 01:45:43;;;;;;;;;;;;;;;21.65;61.84;100766.97;4225748;28;20065;-69
2023/09/18 01:47:45;;;;;;;;;;;;;;;21.65;61.84;100777.13;4227661;28;20018;-68
2023/09/18 01:49:46;;;;;;;;;;;;;;;21.63;61.89;100782.03;4228798;28;20014;-67
2023/09/18 01:51:49;;;;;;;;;;;;;;;21.60;61.91;100783.38;4227567;28;19924;-67
2023/09/18 01:53:52;;;;;;;;;;;;;;;21.59;61.94;100779.78;4229113;28;20007;-69
2023/09/18 01:55:56;;;;;;;;;;;;;;;21.59;62.04;100774.28;4201992;28;20018;-67
2023/09/18 01:57:58;;;;;;;;;;;;;;;21.57;62.13;100770.94;4220378;28;20035;-67
2023/09/18 02:00:00;;;;;;;;;;;;;;;21.57;62.26;100765.47;4218128;28;20046;-68
2023/09/18 02:02:03;;;;;;;;;;;;;;;21.54;62.00;100754.97;4227757;28;20010;-68
2023/09/18 02:04:05;;;;;;;;;;;;;;;21.53;62.31;100758.78;4229821;28;20019;-67
2023/09/18 02:06:08;;;;;;;;;;;;;;;21.51;62.32;100747.22;4228343;28;20059;-67
2023/09/18 02:08:13;;;;;;;;;;;;;;;21.51;62.14;100749.16;4220227;28;20039;-67
2023/09/18 02:10:15;;;;;;;;;;;;;;;21.49;62.16;100743.91;4227902;28;20014;-68
2023/09/18 02:12:19;;;;;;;;;;;;;;;21.49;62.31;100737.56;4228988;27;20458;-68
2023/09/18 02:14:21;;;;;;;;;;;;;;;21.47;62.17;100728.69;4228769;28;20010;-69
2023/09/18 02:16:24;;;;;;;;;;;;;;;21.46;62.02;100730.63;4229698;28;20457;-68
2023/09/18 02:18:25;;;;;;;;;;;;;;;21.46;62.17;100727.03;4236973;27;20023;-67
2023/09/18 02:20:26;;;;;;;;;;;;;;;21.46;62.22;100727.88;4226657;28;19931;-68
2023/09/18 02:22:28;;;;;;;;;;;;;;;21.44;62.30;100719.03;4226706;28;20010;-68
2023/09/18 02:24:30;;;;;;;;;;;;;;;21.42;62.41;100721.22;4229086;28;20049;-67
2023/09/18 02:26:32;;;;;;;;;;;;;;;21.39;62.45;100711.56;4227676;28;20018;-69
2023/09/18 02:28:36;;;;;;;;;;;;;;;21.38;62.38;100706.31;4225824;28;20002;-68
2023/09/18 02:30:39;;;;;;;;;;;;;;;21.38;62.52;100706.31;4226133;28;20007;-68
2023/09/18 02:32:41;;;;;;;;;;;;;;;21.37;62.37;100704.66;4226469;28;19923;-67
2023/09/18 02:34:43;;;;;;;;;;;;;;;21.34;62.65;100705.97;4228253;28;20024;-68
2023/09/18 02:36:45;;;;;;;;;;;;;;;21.32;62.70;100699.91;4227110;28;20010;-68
2023/09/18 02:38:47;;;;;;;;;;;;;;;21.31;62.49;100697.41;4226134;28;20947;-68
2023/09/18 02:40:49;;;;;;;;;;;;;;;21.29;62.69;100686.66;4234962;27;20018;-69
2023/09/18 02:42:51;;;;;;;;;;;;;;;21.29;62.48;100699.59;4226543;28;20018;-69
2023/09/18 02:44:55;;;;;;;;;;;;;;;21.26;62.68;100689.91;4227670;28;20014;-69
2023/09/18 02:46:58;;;;;;;;;;;;;;;21.23;62.79;100688.50;4227473;28;20047;-68
2023/09/18 02:49:00;;;;;;;;;;;;;;;21.22;62.83;100686.84;4228579;28;20023;-67
2023/09/18 02:51:02;;;;;;;;;;;;;;;21.23;62.88;100690.41;4226895;28;20564;-67
2023/09/18 02:53:06;;;;;;;;;;;;;;;21.22;62.72;100692.34;4226208;28;20443;-67
2023/09/18 02:55:09;;;;;;;;;;;;;;;21.20;62.66;100685.41;4234540;27;20021;-67
2023/09/18 02:57:11;;;;;;;;;;;;;;;21.20;62.72;100688.16;4236317;27;20014;-68
2023/09/18 02:59:13;;;;;;;;;;;;;;;21.18;62.94;100691.16;4226444;28;20362;-67
2023/09/18 03:01:17;;;;;;;;;;;;;;;21.17;62.91;100684.00;4218732;28;20019;-65
2023/09/18 03:03:19;;;;;;;;;;;;;;;21.16;62.93;100681.50;4235267;27;20018;-68
2023/09/18 03:05:21;;;;;;;;;;;;;;;21.16;62.97;100684.25;4227095;28;20006;-67
2023/09/18 03:07:23;;;;;;;;;;;;;;;21.15;63.17;100679.84;4226889;28;20011;-68
2023/09/18 03:09:25;;;;;;;;;;;;;;;21.14;62.98;100668.00;4218048;28;20019;-67
2023/09/18 03:11:28;;;;;;;;;;;;;;;21.14;63.07;100661.69;4228350;28;20035;-68
2023/09/18 03:13:31;;;;;;;;;;;;;;;21.12;62.98;100652.88;4226646;28;19924;-67
2023/09/18 03:15:33;;;;;;;;;;;;;;;21.11;63.18;100657.53;4226367;28;20027;-68
2023/09/18 03:17:37;;;;;;;;;;;;;;;21.10;62.99;100658.63;4227843;28;20011;-68
2023/09/18 03:19:39;;;;;;;;;;;;;;;21.09;63.30;100659.69;4219363;28;20035;-69
2023/09/18 03:21:41;;;;;;;;;;;;;;;21.06;63.37;100652.81;4217113;28;20011;-68
2023/09/18 03:23:43;;;;;;;;;;;;;;;21.01;63.35;100660.94;4226490;28;20028;-68
2023/09/18 03:25:45;;;;;;;;;;;;;;;20.99;63.34;100651.31;4227923;28;20023;-69
2023/09/18 03:27:48;;;;;;;;;;;;;;;20.98;63.38;100661.44;4228355;28;20027;-69
2023/09/18 03:29:50;;;;;;;;;;;;;;;20.94;63.61;100653.94;4227999;28;20018;-67
2023/09/18 03:31:52;;;;;;;;;;;;;;;20.93;63.51;100658.59;4235645;28;20109;-68
2023/09/18 03:33:57;;;;;;;;;;;;;;;20.93;63.64;100653.13;4225573;28;20011;-68
2023/09/18 03:35:59;;;;;;;;;;;;;;;20.91;63.58;100643.47;4217553;28;20089;-67
2023/09/18 03:38:03;;;;;;;;;;;;;;;20.88;63.78;100651.13;4235660;28;20010;-68
2023/09/18 03:40:07;;;;;;;;;;;;;;;20.88;63.72;100644.81;4224788;28;20019;-68
2023/09/18 03:42:09;;;;;;;;;;;;;;;20.87;63.96;100641.22;4235250;28;20030;-68
2023/09/18 03:44:12;;;;;;;;;;;;;;;20.87;63.56;100643.94;4228265;28;20031;-69
2023/09/18 03:46:14;;;;;;;;;;;;;;;20.88;63.69;100648.38;4238827;27;20026;-68
2023/09/18 03:48:21;;;;;;;;;;;;;;;20.88;63.48;100644.81;4229234;28;20031;-69
2023/09/18 03:50:27;;;;;;;;;;;;;;;20.86;63.60;100645.06;4229337;28;20018;-67
2023/09/18 03:52:28;;;;;;;;;;;;;;;20.85;63.77;100645.31;4228235;28;20034;-66
2023/09/18 03:54:30;;;;;;;;;;;;;;;20.84;63.70;100643.63;4231354;28;20398;-67
2023/09/18 03:56:32;;;;;;;;;;;;;;;20.81;63.81;100644.94;4221179;28;20369;-67
2023/09/18 03:58:33;;;;;;;;;;;;;;;20.82;63.67;100643.06;4222663;28;20022;-69
2023/09/18 04:00:35;;;;;;;;;;;;;;;20.82;63.87;100648.53;4229755;28;20019;-68
2023/09/18 04:02:37;;;;;;;;;;;;;;;20.81;63.88;100625.72;4211480;28;19935;-68
2023/09/18 04:04:40;;;;;;;;;;;;;;;20.81;63.91;100630.41;4228387;28;20019;-68
2023/09/18 04:06:44;;;;;;;;;;;;;;;20.80;63.97;100626.81;4221287;28;20020;-67
2023/09/18 04:08:47;;;;;;;;;;;;;;;20.81;64.14;100627.66;4229193;28;20022;-68
2023/09/18 04:10:48;;;;;;;;;;;;;;;20.80;64.03;100625.97;4230328;28;20022;-69
2023/09/18 04:12:50;;;;;;;;;;;;;;;20.80;64.10;100628.72;4220424;28;20024;-68
2023/09/18 04:14:52;;;;;;;;;;;;;;;20.78;63.79;100631.72;4221127;28;20321;-67
2023/09/18 04:16:53;;;;;;;;;;;;;;;20.77;64.01;100623.72;4220847;28;20022;-68
2023/09/18 04:18:56;;;;;;;;;;;;;;;20.77;64.11;100619.09;4228160;28;20066;-67
2023/09/18 04:20:58;;;;;;;;;;;;;;;20.77;64.13;100620.97;4229110;28;20030;-67
2023/09/18 04:23:17;;;;;;;;;;;;;;;20.76;64.03;100608.34;4220792;28;20019;-66
2023/09/18 04:25:22;;;;;;;;;;;;;;;20.75;64.11;100606.69;4229908;28;20019;-68
2023/09/18 04:27:24;;;;;;;;;;;;;;;20.73;64.20;100606.09;4227801;28;20343;-66
2023/09/18 04:29:26;;;;;;;;;;;;;;;20.72;64.13;100616.25;4229568;28;20007;-68
2023/09/18 04:31:28;;;;;;;;;;;;;;;20.71;64.19;100611.84;4226043;28;20010;-67
2023/09/18 04:33:30;;;;;;;;;;;;;;;20.70;64.42;100608.28;4226601;28;20014;-67
2023/09/18 04:35:32;;;;;;;;;;;;;;;20.69;64.40;100603.03;4228245;28;20857;-67
2023/09/18 04:37:38;;;;;;;;;;;;;;;20.67;64.55;100596.94;4229056;28;19967;-67
2023/09/18 04:39:41;;;;;;;;;;;;;;;20.65;64.50;100604.59;4227372;28;20018;-67
2023/09/18 04:41:44;;;;;;;;;;;;;;;20.66;64.51;100595.31;4229289;28;20437;-67
2023/09/18 04:43:47;;;;;;;;;;;;;;;20.64;64.61;100598.28;4228309;28;20011;-68
2023/09/18 04:45:49;;;;;;;;;;;;;;;20.63;64.64;100596.59;4230112;28;20022;-67
2023/09/18 04:47:50;;;;;;;;;;;;;;;20.64;64.78;100598.28;4229014;28;20026;-67
2023/09/18 04:49:52;;;;;;;;;;;;;;;20.64;64.77;100589.19;4229567;28;20014;-68
2023/09/18 04:51:55;;;;;;;;;;;;;;;20.65;64.75;100596.38;4220528;28;20022;-68
2023/09/18 04:53:58;;;;;;;;;;;;;;;20.64;64.82;100595.56;4237204;27;20038;-67
2023/09/18 04:56:00;;;;;;;;;;;;;;;20.63;64.79;100591.09;4226539;28;20482;-69
2023/09/18 04:58:05;;;;;;;;;;;;;;;20.62;64.66;100592.16;4237952;27;20383;-68
2023/09/18 05:00:09;;;;;;;;;;;;;;;20.62;64.86;100597.66;4227324;28;20011;-67
2023/09/18 05:02:11;;;;;;;;;;;;;;;20.61;64.97;100590.53;4226596;28;20018;-68
2023/09/18 05:04:14;;;;;;;;;;;;;;;20.60;64.86;100599.00;4211242;28;19960;-67
2023/09/18 05:06:16;;;;;;;;;;;;;;;20.58;65.10;100593.75;4228736;28;20568;-67
2023/09/18 05:08:18;;;;;;;;;;;;;;;20.57;65.02;100592.09;4229259;28;20010;-66
2023/09/18 05:10:20;;;;;;;;;;;;;;;20.56;65.05;100581.34;4228833;28;20019;-67
2023/09/18 05:12:23;;;;;;;;;;;;;;;20.56;65.10;100586.84;4229289;28;20026;-67
2023/09/18 05:14:26;;;;;;;;;;;;;;;20.57;65.06;100583.84;4227515;28;20006;-67
2023/09/18 05:16:28;;;;;;;;;;;;;;;20.60;65.30;100585.28;4229253;28;20317;-67
2023/09/18 05:18:29;;;;;;;;;;;;;;;20.59;65.01;100589.09;4228393;28;20021;-67
2023/09/18 05:20:32;;;;;;;;;;;;;;;20.60;65.03;100585.28;4227862;28;19924;-67
2023/09/18 05:22:34;;;;;;;;;;;;;;;20.61;65.35;100584.19;4227428;28;20476;-66
2023/09/18 05:24:36;;;;;;;;;;;;;;;20.62;65.21;100588.59;4228034;28;20015;-66
2023/09/18 05:26:38;;;;;;;;;;;;;;;20.64;65.16;100578.19;4228187;28;20394;-66
2023/09/18 05:28:40;;;;;;;;;;;;;;;20.64;65.29;100576.34;4226699;28;20022;-66
2023/09/18 05:30:43;;;;;;;;;;;;;;;20.65;65.20;100572.50;4227279;28;20027;-67
2023/09/18 05:32:45;;;;;;;;;;;;;;;20.66;65.22;100576.09;4227876;28;20030;-67
2023/09/18 05:34:47;;;;;;;;;;;;;;;20.68;65.09;100579.41;4228032;28;20362;-65
2023/09/18 05:36:49;;;;;;;;;;;;;;;20.69;65.15;100578.34;4228250;28;19955;-65
2023/09/18 05:38:50;;;;;;;;;;;;;;;20.72;65.20;100577.00;4226905;28;20047;-66
2023/09/18 05:40:53;;;;;;;;;;;;;;;20.73;65.25;100570.44;4227991;28;19927;-67
2023/09/18 05:42:55;;;;;;;;;;;;;;;20.74;65.08;100572.13;4228283;28;20056;-66
2023/09/18 05:44:57;;;;;;;;;;;;;;;20.75;65.32;100569.09;4229439;28;20015;-66
2023/09/18 05:47:02;;;;;;;;;;;;;;;20.78;64.91;100565.03;4229264;28;20026;-65
2023/09/18 05:49:04;;;;;;;;;;;;;;;20.81;65.04;100561.78;4229034;28;20386;-66
2023/09/18 05:51:07;;;;;;;;;;;;;;;20.82;65.17;100552.47;4228416;28;20010;-66
2023/09/18 05:53:09;;;;;;;;;;;;;;;20.84;64.76;100550.31;4228809;28;20027;-67
2023/09/18 05:55:12;;;;;;;;;;;;;;;20.86;64.90;100545.38;4227249;28;20014;-65
2023/09/18 05:57:14;;;;;;;;;;;;;;;20.88;65.19;100541.31;4222340;28;20384;-67
2023/09/18 05:59:18;;;;;;;;;;;;;;;20.91;65.08;100534.50;4219434;28;20453;-67
2023/09/18 06:01:20;;;;;;;;;;;;;;;20.94;64.79;100535.91;4225398;28;20654;-66
2023/09/18 06:03:24;;;;;;;;;;;;;;;20.94;64.86;100531.25;4225278;28;20023;-66
2023/09/18 06:05:26;;;;;;;;;;;;;;;20.97;64.65;100524.41;4224181;28;20026;-66
2023/09/18 06:07:28;;;;;;;;;;;;;;;20.98;64.66;100524.16;4224455;28;20469;-66
2023/09/18 06:09:31;;;;;;;;;;;;;;;21.01;64.52;100522.84;4226472;28;20378;-67
2023/09/18 06:11:33;;;;;;;;;;;;;;;21.03;64.33;100517.91;4226710;28;20018;-67
2023/09/18 06:13:34;;;;;;;;;;;;;;;21.04;64.58;100517.66;4226089;28;20010;-66
2023/09/18 06:15:36;;;;;;;;;;;;;;;21.06;64.54;100510.03;4225671;28;20004;-66
2023/09/18 06:17:39;;;;;;;;;;;;;;;21.09;64.49;100513.34;4228335;28;20382;-66
2023/09/18 06:19:42;;;;;;;;;;;;;;;21.11;64.73;100511.16;4228769;28;20007;-66
2023/09/18 06:21:44;;;;;;;;;;;;;;;21.14;64.55;100510.66;4226543;28;20433;-66
2023/09/18 06:23:46;;;;;;;;;;;;;;;21.14;64.37;100508.75;4228192;28;20423;-67
2023/09/18 06:25:55;;;;;;;;;;;;;;;21.14;64.46;100511.47;4225094;28;20449;-67
2023/09/18 06:27:57;;;;;;;;;;;;;;;21.17;64.25;100512.91;4225814;28;20026;-68
2023/09/18 06:29:58;;;;;;;;;;;;;;;21.18;64.53;100504.41;4228952;28;20536;-65
2023/09/18 06:32:00;;;;;;;;;;;;;;;21.18;64.38;100501.66;4227709;28;19932;-66
2023/09/18 06:34:02;;;;;;;;;;;;;;;21.21;64.41;100514.88;4228468;28;20007;-67
2023/09/18 06:36:05;;;;;;;;;;;;;;;21.22;64.36;100508.31;4227567;28;20033;-66
2023/09/18 06:38:10;;;;;;;;;;;;;;;21.26;64.37;100503.16;4228708;28;19932;-67
2023/09/18 06:40:12;;;;;;;;;;;;;;;21.27;63.99;100502.06;4228602;28;20018;-67
2023/09/18 06:42:14;;;;;;;;;;;;;;;21.29;63.99;100496.31;4229049;28;20030;-67
2023/09/18 06:44:16;;;;;;;;;;;;;;;21.31;63.80;100492.22;4229311;28;20357;-67
2023/09/18 06:46:18;;;;;;;;;;;;;;;21.33;63.59;100491.97;4227155;28;20010;-67
2023/09/18 06:48:21;;;;;;;;;;;;;;;21.35;63.39;100490.63;4225204;28;20038;-67
2023/09/18 06:50:24;;;;;;;;;;;;;;;21.38;63.41;100486.56;4224717;28;20054;-66
2023/09/18 06:52:27;;;;;;;;;;;;;;;21.40;63.48;100482.44;4226006;28;20031;-68
2023/09/18 06:54:28;;;;;;;;;;;;;;;21.43;63.38;100476.44;4225995;28;20619;-68
2023/09/18 06:56:30;;;;;;;;;;;;;;;21.47;63.29;100473.19;4227591;28;19935;-66
2023/09/18 06:58:32;;;;;;;;;;;;;;;21.50;63.49;100475.47;4227197;28;20371;-68
2023/09/18 07:00:34;;;;;;;;;;;;;;;21.53;63.41;100480.44;4227612;28;20038;-67
2023/09/18 07:02:37;;;;;;;;;;;;;;;21.57;62.89;100470.59;4227636;28;20015;-66
2023/09/18 07:04:44;;;;;;;;;;;;;;;21.59;63.11;100474.75;4218412;28;19970;-68
2023/09/18 07:06:46;;;;;;;;;;;;;;;21.63;62.81;100463.22;4228933;28;20015;-67
2023/09/18 07:08:50;;;;;;;;;;;;;;;21.64;62.89;100462.16;4228450;28;20360;-67
2023/09/18 07:10:53;;;;;;;;;;;;;;;21.68;62.74;100466.06;4228608;28;20365;-66
2023/09/18 07:12:55;;;;;;;;;;;;;;;21.71;62.77;100462.81;4218624;28;20034;-66
2023/09/18 07:14:56;;;;;;;;;;;;;;;21.74;62.35;100456.75;4228219;28;20017;-67
2023/09/18 07:16:58;;;;;;;;;;;;;;;21.77;62.51;100451.59;4228740;28;19924;-67
2023/09/18 07:18:59;;;;;;;;;;;;;;;21.80;62.35;100444.72;4228362;28;19927;-67
2023/09/18 07:21:01;;;;;;;;;;;;;;;21.82;62.09;100439.81;4226627;28;19932;-67
2023/09/18 07:23:04;;;;;;;;;;;;;;;21.85;62.03;100442.06;4228128;28;20376;-66
2023/09/18 07:25:08;;;;;;;;;;;;;;;21.89;61.87;100445.09;4228553;28;20458;-67
2023/09/18 07:27:09;;;;;;;;;;;;;;;21.92;61.83;100448.16;4227537;28;20018;-66
2023/09/18 07:29:12;;;;;;;;;;;;;;;21.96;61.85;100446.56;4227725;28;20030;-67
2023/09/18 07:31:15;;;;;;;;;;;;;;;21.98;61.72;100446.28;4226840;28;20018;-65
2023/09/18 07:33:17;;;;;;;;;;;;;;;22.01;61.66;100439.47;4228175;28;20038;-68
2023/09/18 07:35:19;;;;;;;;;;;;;;;22.05;61.74;100441.44;4228500;28;20015;-67
2023/09/18 07:37:21;;;;;;;;;;;;;;;22.08;61.76;100432.63;4228514;28;20035;-68
2023/09/18 07:39:23;;;;;;;;;;;;;;;22.12;61.30;100430.19;4228137;28;20406;-67
2023/09/18 07:41:27;;;;;;;;;;;;;;;22.16;61.40;100434.06;4227983;28;20497;-68
2023/09/18 07:43:29;;;;;;;;;;;;;;;22.19;61.13;100433.53;4227839;28;20007;-67
2023/09/18 07:45:30;;;;;;;;;;;;;;;22.22;61.25;100435.78;4227745;28;20441;-66
2023/09/18 07:47:31;;;;;;;;;;;;;;;22.26;61.17;100436.09;4228540;28;20010;-66
2023/09/18 07:49:34;;;;;;;;;;;;;;;22.29;61.05;100438.31;4226687;28;19935;-68
2023/09/18 07:51:36;;;;;;;;;;;;;;;22.33;60.88;100436.72;4226838;28;20017;-65
2023/09/18 07:53:38;;;;;;;;;;;;;;;22.36;60.81;100436.19;4228356;28;20018;-67
2023/09/18 07:55:40;;;;;;;;;;;;;;;22.39;60.90;100430.16;4228033;28;20014;-66
2023/09/18 07:57:45;;;;;;;;;;;;;;;22.43;60.54;100425.81;4228266;28;20512;-66
2023/09/18 07:59:47;;;;;;;;;;;;;;;22.47;60.44;100421.41;4226988;28;19929;-67
2023/09/18 08:01:49;;;;;;;;;;;;;;;22.50;60.66;100420.88;4227502;28;20372;-68
2023/09/18 08:03:51;;;;;;;;;;;;;;;22.54;60.38;100426.72;4227362;28;20027;-67
2023/09/18 08:05:54;;;;;;;;;;;;;;;22.58;60.23;100418.75;4228599;28;20019;-67
2023/09/18 08:07:56;;;;;;;;;;;;;;;22.62;60.36;100417.13;4227339;28;20019;-67
2023/09/18 08:09:58;;;;;;;;;;;;;;;22.65;60.30;100416.59;4235246;28;20026;-66
2023/09/18 08:12:00;;;;;;;;;;;;;;;22.67;60.25;100417.97;4226947;28;20022;-68
2023/09/18 08:14:04;;;;;;;;;;;;;;;22.72;60.25;100413.63;4228029;28;20025;-67
2023/09/18 08:16:07;;;;;;;;;;;;;;;22.75;59.86;100405.63;4227845;28;20030;-67
2023/09/18 08:18:09;;;;;;;;;;;;;;;22.79;59.91;100411.44;4227387;28;20006;-66
2023/09/18 08:20:13;;;;;;;;;;;;;;;22.82;59.86;100406.25;4228158;28;20400;-67
2023/09/18 08:22:16;;;;;;;;;;;;;;;22.86;60.12;100406.53;4227384;28;20026;-67
2023/09/18 08:24:18;;;;;;;;;;;;;;;22.90;59.82;100396.66;4227882;28;20419;-69
2023/09/18 08:26:20;;;;;;;;;;;;;;;22.94;59.87;100392.25;4227937;28;20042;-66
2023/09/18 08:28:22;;;;;;;;;;;;;;;22.98;59.53;100398.06;4228217;28;20042;-67
2023/09/18 08:30:26;;;;;;;;;;;;;;;23.02;59.57;100394.50;4221320;28;20014;-68
2023/09/18 08:32:30;;;;;;;;;;;;;;;23.08;59.70;100384.34;4230093;28;20042;-66
2023/09/18 08:34:31;;;;;;;;;;;;;;;23.14;59.44;100390.72;4230684;28;20023;-67
2023/09/18 08:36:33;;;;;;;;;;;;;;;23.21;59.49;100391.28;4230785;28;19928;-69
2023/09/18 08:38:35;;;;;;;;;;;;;;;23.28;59.25;100393.81;4229181;28;20019;-69
2023/09/18 08:40:36;;;;;;;;;;;;;;;23.34;59.00;100393.53;4229809;28;19923;-67
2023/09/18 08:42:42;;;;;;;;;;;;;;;23.45;58.93;100390.78;4231029;27;19980;-67
2023/09/18 08:44:44;;;;;;;;;;;;;;;23.54;58.51;100398.28;4230362;28;20363;-67
2023/09/18 08:46:47;;;;;;;;;;;;;;;23.64;58.44;100389.19;4229640;28;20342;-67
2023/09/18 08:48:50;;;;;;;;;;;;;;;23.74;57.98;100397.47;4231271;28;20023;-67
2023/09/18 08:50:52;;;;;;;;;;;;;;;23.85;57.90;100389.25;4229619;28;20014;-67
2023/09/18 08:52:53;;;;;;;;;;;;;;;23.93;57.49;100381.28;4230233;28;20010;-68
2023/09/18 08:54:56;;;;;;;;;;;;;;;24.04;57.60;100371.03;4229941;28;20006;-66
2023/09/18 08:56:58;;;;;;;;;;;;;;;24.16;57.13;100375.47;4221466;28;19967;-67
2023/09/18 08:59:00;;;;;;;;;;;;;;;24.26;56.72;100368.03;4221193;28;20396;-66
2023/09/18 09:01:03;;;;;;;;;;;;;;;24.33;56.44;100361.41;4229089;28;19927;-67
2023/09/18 09:03:07;;;;;;;;;;;;;;;24.42;56.44;100348.66;4227817;28;20014;-68
2023/09/18 09:05:08;;;;;;;;;;;;;;;24.47;56.52;100345.91;4230290;28;20023;-67
2023/09/18 09:07:10;;;;;;;;;;;;;;;24.52;55.91;100345.88;4230444;28;20339;-68
2023/09/18 09:09:14;;;;;;;;;;;;;;;24.55;56.23;100339.00;4230653;28;20034;-67
2023/09/18 09:11:16;;;;;;;;;;;;;;;24.58;56.05;100332.94;4228948;28;20345;-67
2023/09/18 09:13:24;;;;;;;;;;;;;;;24.60;55.78;100336.25;4229649;28;20019;-67
2023/09/18 09:15:27;;;;;;;;;;;;;;;24.61;56.03;100332.38;4229656;28;20011;-64
2023/09/18 09:17:28;;;;;;;;;;;;;;;24.61;56.04;100333.19;4229738;28;20027;-67
2023/09/18 09:19:32;;;;;;;;;;;;;;;24.62;55.62;100322.97;4230135;28;19939;-68
2023/09/18 09:21:43;;;;;;;;;;;;;;;24.62;55.57;100323.81;4227574;28;20350;-69
2023/09/18 09:23:48;;;;;;;;;;;;;;;24.61;55.90;100326.84;4229888;28;19963;-68
2023/09/18 09:25:50;;;;;;;;;;;;;;;24.62;55.89;100321.06;4228992;28;20023;-68
2023/09/18 09:27:52;;;;;;;;;;;;;;;24.60;55.72;100309.44;4229094;28;20023;-67
2023/09/18 09:30:00;;;;;;;;;;;;;;;24.60;55.80;100309.44;4228984;28;20018;-67
2023/09/18 09:32:14;;;;;;;;;;;;;;;24.60;55.56;100300.34;4228485;28;20460;-66
2023/09/18 09:34:26;;;;;;;;;;;;;;;24.59;55.95;100302.28;4229768;28;20454;-67
2023/09/18 09:36:29;;;;;;;;;;;;;;;24.57;55.63;100295.38;4228827;28;20022;-66
2023/09/18 09:38:33;;;;;;;;;;;;;;;24.58;55.61;100297.06;4228778;28;20014;-67
2023/09/18 09:40:36;;;;;;;;;;;;;;;24.57;55.71;100293.44;4228529;28;20389;-68
2023/09/18 09:42:40;;;;;;;;;;;;;;;24.57;56.03;100287.91;4229364;28;20022;-65
2023/09/18 09:44:42;;;;;;;;;;;;;;;24.56;55.57;100290.94;4229765;28;20496;-66
2023/09/18 09:46:48;;;;;;;;;;;;;;;24.55;55.68;100292.06;4229524;28;20010;-68
2023/09/18 09:48:59;;;;;;;;;;;;;;;24.54;55.84;100305.00;4230092;28;20014;-66
2023/09/18 09:51:01;;;;;;;;;;;;;;;24.54;55.90;100312.47;4229367;28;20364;-69
2023/09/18 09:53:04;;;;;;;;;;;;;;;24.53;55.86;100316.34;4229398;28;20042;-67
2023/09/18 09:55:09;;;;;;;;;;;;;;;24.53;56.07;100306.16;4228698;28;20413;-66
2023/09/18 09:57:11;;;;;;;;;;;;;;;24.53;55.79;100305.28;4228316;28;20544;-66
2023/09/18 09:59:14;;;;;;;;;;;;;;;24.52;55.86;100306.44;4229286;28;20023;-67
2023/09/18 10:01:17;;;;;;;;;;;;;;;24.53;55.87;100310.81;4227344;28;20026;-68
2023/09/18 10:03:20;;;;;;;;;;;;;;;24.53;55.84;100299.78;4228359;28;20026;-66
2023/09/18 10:05:21;;;;;;;;;;;;;;;24.52;55.80;100300.91;4220417;28;20010;-68
2023/09/18 10:07:23;;;;;;;;;;;;;;;24.52;55.83;100292.63;4229014;28;19927;-67
2023/09/18 10:09:28;;;;;;;;;;;;;;;24.52;56.13;100287.09;4228735;28;20018;-63
2023/09/18 10:11:32;;;;;;;;;;;;;;;24.52;55.72;100281.56;4228045;28;20054;-66
2023/09/18 10:13:37;;;;;;;;;;;;;;;24.52;55.78;100281.56;4228779;28;20023;-68
2023/09/18 10:15:38;;;;;;;;;;;;;;;24.51;55.72;100277.16;4226909;28;20014;-65
2023/09/18 10:17:41;;;;;;;;;;;;;;;24.51;56.08;100283.50;4228373;28;20018;-67
2023/09/18 10:19:46;;;;;;;;;;;;;;;24.50;56.08;100278.25;4228961;28;20691;-65
2023/09/18 10:21:50;;;;;;;;;;;;;;;24.49;55.95;100277.44;4228373;28;20032;-65
2023/09/18 10:23:54;;;;;;;;;;;;;;;24.50;55.50;100278.25;4228402;28;20275;-66
2023/09/18 10:25:59;;;;;;;;;;;;;;;24.47;55.93;100272.19;4228769;28;20014;-68
2023/09/18 10:28:02;;;;;;;;;;;;;;;24.47;55.52;100277.72;4229214;28;20039;-64
2023/09/18 10:30:10;;;;;;;;;;;;;;;24.46;55.56;100291.81;4227476;28;20019;-67